Land Flyklubb
 
METAR
2021/07/28 00:20 ENCN 280020Z AUTO 06004KT 0450 R03/P2000N R21/1500U FEW000/// SCT015/// BKN021/// 16/16 Q1006
TAF
2021/07/27 17:57 TAF AMD TAF AMD ENCN 271753Z 2717/2720 07008KT 9999 FEW010 BKN020 PROB30 TEMPO 2718/2720 2500 TSRA BKN008 SCT020CB
LN-KFK
Operativ VFR-natt
VFR dag
04:14 - 22:53
Brannvakt
Inaktiv
Banner
Banner
Banner
Banner
Banner